createdAt,value
2023-02-08T00:00:49.102Z,47.68
2023-02-08T00:03:16.126Z,47.92
2023-02-08T00:05:42.638Z,47.51
2023-02-08T00:08:09.501Z,47.57
2023-02-08T00:10:36.072Z,47.62
2023-02-08T00:13:02.693Z,48.43
2023-02-08T00:15:29.336Z,47.36
2023-02-08T00:17:55.850Z,47.73
2023-02-08T00:20:22.432Z,47.48
2023-02-08T00:22:48.989Z,48.43
2023-02-08T00:25:15.550Z,47.33
2023-02-08T00:27:42.013Z,47.59
2023-02-08T00:30:09.150Z,48.21
2023-02-08T00:32:35.676Z,48.03
2023-02-08T00:35:02.185Z,48.22
2023-02-08T00:37:28.720Z,48.45
2023-02-08T00:39:55.225Z,47.55
2023-02-08T00:42:21.744Z,47.46
2023-02-08T00:44:48.230Z,48.37
2023-02-08T00:47:14.768Z,48.10
2023-02-08T00:49:41.285Z,48.19
2023-02-08T00:52:07.792Z,47.39
2023-02-08T00:54:34.304Z,48.27
2023-02-08T00:57:00.829Z,47.61
2023-02-08T00:59:27.831Z,47.59
2023-02-08T01:01:54.355Z,47.74
2023-02-08T01:04:20.903Z,47.43
2023-02-08T01:06:47.411Z,47.78
2023-02-08T01:09:13.964Z,47.56
2023-02-08T01:11:40.458Z,47.72
2023-02-08T01:14:07.002Z,47.79
2023-02-08T01:16:34.681Z,48.25
2023-02-08T01:19:03.904Z,47.53
2023-02-08T01:21:33.942Z,47.78
2023-02-08T01:24:00.715Z,48.20
2023-02-08T01:26:27.474Z,47.55
2023-02-08T01:28:55.645Z,47.52
2023-02-08T01:31:29.471Z,48.32
2023-02-08T01:33:57.592Z,47.68
2023-02-08T01:36:25.032Z,48.68
2023-02-08T01:38:51.843Z,48.26
2023-02-08T01:41:29.944Z,47.63
2023-02-08T01:44:27.751Z,47.94
2023-02-08T01:46:54.552Z,47.48
2023-02-08T01:49:32.290Z,48.17
2023-02-08T01:52:06.135Z,48.61
2023-02-08T01:54:43.476Z,48.55
2023-02-08T01:57:10.407Z,48.38
2023-02-08T01:59:47.245Z,47.81
2023-02-08T02:02:17.505Z,47.56
2023-02-08T02:04:44.472Z,48.14
2023-02-08T02:07:13.335Z,47.77
2023-02-08T02:09:44.892Z,47.57
2023-02-08T02:12:12.334Z,47.87
2023-02-08T02:14:40.082Z,47.54
2023-02-08T02:17:07.355Z,47.52
2023-02-08T02:19:48.405Z,47.47
2023-02-08T02:22:20.776Z,47.37
2023-02-08T02:25:05.258Z,47.96
2023-02-08T02:27:53.312Z,48.47
2023-02-08T02:30:38.663Z,48.15
2023-02-08T02:33:33.528Z,47.35
2023-02-08T02:36:22.322Z,47.86
2023-02-08T02:39:08.248Z,47.97
2023-02-08T02:42:13.271Z,47.43
2023-02-08T02:44:51.739Z,48.28
2023-02-08T02:47:27.236Z,48.19
2023-02-08T02:50:06.620Z,47.85
2023-02-08T02:52:43.882Z,47.47
2023-02-08T02:55:16.211Z,47.53
2023-02-08T02:57:46.944Z,48.29
2023-02-08T03:00:21.443Z,47.48
2023-02-08T03:02:47.949Z,47.52
2023-02-08T03:05:14.591Z,48.43
2023-02-08T03:08:00.041Z,48.36
2023-02-08T03:11:01.265Z,48.46
2023-02-08T03:13:42.946Z,48.26
2023-02-08T03:16:27.738Z,48.52
2023-02-08T03:19:27.579Z,48.43
2023-02-08T03:22:02.486Z,47.81
2023-02-08T03:24:31.728Z,48.44
2023-02-08T03:27:09.484Z,48.09
2023-02-08T03:29:38.978Z,47.41
2023-02-08T03:32:26.657Z,47.70
2023-02-08T03:35:08.016Z,48.08
2023-02-08T03:37:46.531Z,47.74
2023-02-08T03:40:18.564Z,48.33
2023-02-08T03:42:48.306Z,47.46
2023-02-08T03:45:26.721Z,48.50
2023-02-08T03:47:56.728Z,47.94
2023-02-08T03:50:24.464Z,47.54
2023-02-08T03:52:52.542Z,48.11
2023-02-08T03:55:24.727Z,47.43
2023-02-08T03:58:11.498Z,48.18
2023-02-08T04:00:42.674Z,47.23
2023-02-08T04:03:30.708Z,47.40
2023-02-08T04:05:57.324Z,48.20
2023-02-08T04:08:24.554Z,48.38
2023-02-08T04:10:51.090Z,47.32
2023-02-08T04:13:17.654Z,48.26
2023-02-08T04:15:44.763Z,48.15
2023-02-08T04:18:11.355Z,48.13
2023-02-08T04:20:38.048Z,48.22
2023-02-08T04:23:04.644Z,48.29
2023-02-08T04:25:31.125Z,47.47
2023-02-08T04:27:57.640Z,47.35
2023-02-08T04:30:24.175Z,48.01
2023-02-08T04:32:50.680Z,48.38
2023-02-08T04:35:17.201Z,48.07
2023-02-08T04:37:43.720Z,48.38
2023-02-08T04:40:11.034Z,47.30
2023-02-08T04:42:37.621Z,48.04
2023-02-08T04:45:04.337Z,48.22
2023-02-08T04:47:30.865Z,47.50
2023-02-08T04:49:57.365Z,48.10
2023-02-08T04:52:23.902Z,48.33
2023-02-08T04:54:50.389Z,48.26
2023-02-08T04:57:17.003Z,47.43
2023-02-08T04:59:43.507Z,48.23
2023-02-08T05:02:10.028Z,48.44
2023-02-08T05:04:36.571Z,47.84
2023-02-08T05:07:03.270Z,47.76
2023-02-08T05:09:29.809Z,47.45
2023-02-08T05:11:56.279Z,47.94
2023-02-08T05:14:23.065Z,47.92
2023-02-08T05:16:49.591Z,47.32
2023-02-08T05:19:16.078Z,47.31
2023-02-08T05:21:42.580Z,47.24
2023-02-08T05:24:12.734Z,47.43
2023-02-08T05:26:40.463Z,47.65
2023-02-08T05:29:07.020Z,47.47
2023-02-08T05:31:33.644Z,47.97
2023-02-08T05:34:00.392Z,47.96
2023-02-08T05:36:27.009Z,47.92
2023-02-08T05:38:53.558Z,48.25
2023-02-08T05:41:20.326Z,48.06
2023-02-08T05:43:46.858Z,48.22
2023-02-08T05:46:13.776Z,48.07
2023-02-08T05:48:40.262Z,47.34
2023-02-08T05:51:06.783Z,48.16
2023-02-08T05:53:33.440Z,47.42
2023-02-08T05:56:00.012Z,47.27
2023-02-08T05:58:26.809Z,47.25
2023-02-08T06:00:53.521Z,47.47
2023-02-08T06:03:20.238Z,47.89
2023-02-08T06:05:47.040Z,48.29
2023-02-08T06:08:13.620Z,47.35
2023-02-08T06:10:40.432Z,47.54
2023-02-08T06:13:07.079Z,47.82
2023-02-08T06:15:33.747Z,47.92
2023-02-08T06:18:00.240Z,47.49
2023-02-08T06:20:26.772Z,47.39
2023-02-08T06:22:53.267Z,47.45
2023-02-08T06:25:19.775Z,47.52
2023-02-08T06:27:46.334Z,47.42
2023-02-08T06:30:13.273Z,48.24
2023-02-08T06:32:39.902Z,47.43
2023-02-08T06:35:06.894Z,47.39
2023-02-08T06:37:33.444Z,47.29
2023-02-08T06:40:01.963Z,47.79
2023-02-08T06:42:28.941Z,47.62
2023-02-08T06:44:56.049Z,47.95
2023-02-08T06:47:23.321Z,48.02
2023-02-08T06:49:50.249Z,47.27
2023-02-08T06:52:16.849Z,47.60
2023-02-08T06:54:43.349Z,48.09
2023-02-08T06:57:12.796Z,47.70
2023-02-08T06:59:39.991Z,48.08
2023-02-08T07:02:11.671Z,47.46
2023-02-08T07:04:38.289Z,47.85
2023-02-08T07:07:04.763Z,47.41
2023-02-08T07:09:34.017Z,47.82
2023-02-08T07:12:04.838Z,47.76
2023-02-08T07:14:33.888Z,47.32
2023-02-08T07:17:01.571Z,47.21
2023-02-08T07:19:28.657Z,47.62
2023-02-08T07:21:55.609Z,46.78
2023-02-08T07:24:22.762Z,46.66
2023-02-08T07:26:49.390Z,47.49
2023-02-08T07:29:15.877Z,47.50
2023-02-08T07:31:42.383Z,46.72
2023-02-08T07:34:08.859Z,47.48
2023-02-08T07:36:35.758Z,47.63
2023-02-08T07:39:02.871Z,47.19
2023-02-08T07:41:29.396Z,47.57
2023-02-08T07:43:55.891Z,47.35
2023-02-08T07:46:22.745Z,47.50
2023-02-08T07:48:49.974Z,46.70
2023-02-08T07:51:16.471Z,46.75
2023-02-08T07:53:43.195Z,46.99
2023-02-08T07:56:10.558Z,47.06
2023-02-08T07:58:37.601Z,47.29
2023-02-08T08:01:19.689Z,47.37
2023-02-08T08:03:48.595Z,47.78
2023-02-08T08:06:15.229Z,47.10
2023-02-08T08:08:42.499Z,47.78
2023-02-08T08:11:08.978Z,47.24
2023-02-08T08:13:35.470Z,47.10
2023-02-08T08:16:02.029Z,47.71
2023-02-08T08:18:29.266Z,47.14
2023-02-08T08:20:55.819Z,47.98
2023-02-08T08:23:22.803Z,48.15
2023-02-08T08:25:50.172Z,48.16
2023-02-08T08:28:17.130Z,47.93
2023-02-08T08:30:44.940Z,47.47
2023-02-08T08:33:14.197Z,48.12
2023-02-08T08:35:42.516Z,48.60
2023-02-08T08:38:09.543Z,47.80
2023-02-08T08:40:36.184Z,47.97
2023-02-08T08:43:02.674Z,47.84
2023-02-08T08:45:29.298Z,48.61
2023-02-08T08:47:55.877Z,48.52
2023-02-08T08:50:22.447Z,48.31
2023-02-08T08:52:48.942Z,48.76
2023-02-08T08:55:15.519Z,49.21
2023-02-08T08:57:42.105Z,48.73
2023-02-08T09:00:09.220Z,48.77
2023-02-08T09:02:35.700Z,48.48
2023-02-08T09:05:04.193Z,48.04
2023-02-08T09:07:30.941Z,48.79
2023-02-08T09:09:57.446Z,48.36
2023-02-08T09:12:23.962Z,49.36
2023-02-08T09:14:50.551Z,48.46
2023-02-08T09:17:17.065Z,48.22
2023-02-08T09:19:43.559Z,48.65
2023-02-08T09:22:10.098Z,49.20
2023-02-08T09:24:36.895Z,48.14
2023-02-08T09:27:03.653Z,48.24
2023-02-08T09:29:32.691Z,47.93
2023-02-08T09:31:59.663Z,47.73
2023-02-08T09:34:26.246Z,47.67
2023-02-08T09:36:52.816Z,48.48
2023-02-08T09:39:23.206Z,48.66
2023-02-08T09:42:05.448Z,48.14
2023-02-08T09:44:37.418Z,47.15
2023-02-08T09:47:18.692Z,47.84
2023-02-08T09:50:18.685Z,47.64
2023-02-08T09:52:54.795Z,46.67
2023-02-08T09:55:33.405Z,46.35
2023-02-08T09:58:04.325Z,46.35
2023-02-08T10:00:35.899Z,45.89
2023-02-08T10:03:03.504Z,46.45
2023-02-08T10:05:31.354Z,45.98
2023-02-08T10:08:00.151Z,46.37
2023-02-08T10:10:41.891Z,46.78
2023-02-08T10:13:41.010Z,46.39
2023-02-08T10:16:36.553Z,46.88
2023-02-08T10:19:37.933Z,46.94
2023-02-08T10:22:34.581Z,46.98
2023-02-08T10:25:01.083Z,46.11
2023-02-08T10:27:56.756Z,46.08
2023-02-08T10:30:37.465Z,46.34
2023-02-08T10:33:17.532Z,46.15
2023-02-08T10:35:49.937Z,46.79
2023-02-08T10:38:22.780Z,46.46
2023-02-08T10:40:53.368Z,46.20
2023-02-08T10:43:37.173Z,46.03
2023-02-08T10:46:35.614Z,46.10
2023-02-08T10:49:27.647Z,45.84
2023-02-08T10:51:55.277Z,45.51
2023-02-08T10:54:21.845Z,45.76
2023-02-08T10:56:57.403Z,45.72
2023-02-08T10:59:39.663Z,46.10
2023-02-08T11:02:21.790Z,45.68
2023-02-08T11:05:19.002Z,45.88
2023-02-08T11:07:46.001Z,45.82
2023-02-08T11:10:18.484Z,45.45
2023-02-08T11:13:05.688Z,45.27
2023-02-08T11:15:56.168Z,45.33
2023-02-08T11:18:30.833Z,44.70
2023-02-08T11:21:00.290Z,45.19
2023-02-08T11:23:30.253Z,44.82
2023-02-08T11:26:22.937Z,44.91
2023-02-08T11:29:02.290Z,45.06
2023-02-08T11:31:29.828Z,44.91
2023-02-08T11:34:00.388Z,44.67
2023-02-08T11:36:27.961Z,44.69
2023-02-08T11:38:55.051Z,44.21
2023-02-08T11:41:23.522Z,43.92
2023-02-08T11:43:58.344Z,43.80
2023-02-08T11:46:28.380Z,43.54
2023-02-08T11:48:56.154Z,43.68
2023-02-08T11:51:29.849Z,43.48
2023-02-08T11:53:57.077Z,43.54
2023-02-08T11:56:29.383Z,43.14
2023-02-08T11:59:17.475Z,42.83
2023-02-08T12:01:44.223Z,42.72
2023-02-08T12:04:13.182Z,42.83
2023-02-08T12:06:48.652Z,43.22
2023-02-08T12:09:38.211Z,42.90
2023-02-08T12:12:23.395Z,43.16
2023-02-08T12:14:58.936Z,42.48
2023-02-08T12:17:28.603Z,41.80
2023-02-08T12:20:13.593Z,42.63
2023-02-08T12:22:47.784Z,42.11
2023-02-08T12:25:34.819Z,42.38
2023-02-08T12:28:48.663Z,42.21
2023-02-08T12:31:53.399Z,42.53
2023-02-08T12:34:32.968Z,42.20
2023-02-08T12:37:31.784Z,42.45
2023-02-08T12:40:52.653Z,42.30
2023-02-08T12:43:25.030Z,42.01
2023-02-08T12:45:57.493Z,41.79
2023-02-08T12:48:34.671Z,41.51
2023-02-08T12:51:48.709Z,41.74
2023-02-08T12:54:46.731Z,41.54
2023-02-08T12:57:16.985Z,41.06
2023-02-08T13:00:17.789Z,41.69
2023-02-08T13:03:05.110Z,41.49
2023-02-08T13:05:38.012Z,41.09
2023-02-08T13:08:13.439Z,41.33
2023-02-08T13:10:42.470Z,41.96
2023-02-08T13:13:18.061Z,41.87
2023-02-08T13:15:52.091Z,42.47
2023-02-08T13:18:34.273Z,42.11
2023-02-08T13:21:05.470Z,42.77
2023-02-08T13:23:52.579Z,42.44
2023-02-08T13:26:24.192Z,42.50
2023-02-08T13:28:53.115Z,42.21
2023-02-08T13:31:24.802Z,42.25
2023-02-08T13:34:01.765Z,42.31
2023-02-08T13:36:41.904Z,42.36
2023-02-08T13:39:29.154Z,42.30
2023-02-08T13:41:56.712Z,42.16
2023-02-08T13:44:34.400Z,42.17
2023-02-08T13:47:02.096Z,42.52
2023-02-08T13:50:01.755Z,42.35
2023-02-08T13:52:46.835Z,42.28
2023-02-08T13:55:30.439Z,42.48
2023-02-08T13:58:02.661Z,42.07
2023-02-08T14:00:35.916Z,41.91
2023-02-08T14:03:03.876Z,42.38
2023-02-08T14:05:35.728Z,42.59
2023-02-08T14:08:04.297Z,42.17
2023-02-08T14:10:41.754Z,41.19
2023-02-08T14:13:56.788Z,41.60
2023-02-08T14:16:32.163Z,41.35
2023-02-08T14:19:05.266Z,40.75
2023-02-08T14:21:38.181Z,39.94
2023-02-08T14:24:27.873Z,40.16
2023-02-08T14:27:09.662Z,39.57
2023-02-08T14:29:37.347Z,40.08
2023-02-08T14:32:05.065Z,39.66
2023-02-08T14:34:35.506Z,39.64
2023-02-08T14:37:06.535Z,39.31
2023-02-08T14:39:34.904Z,39.04
2023-02-08T14:42:08.750Z,38.67
2023-02-08T14:44:38.219Z,38.40
2023-02-08T14:47:11.258Z,39.40
2023-02-08T14:49:42.357Z,38.90
2023-02-08T14:52:26.041Z,39.79
2023-02-08T14:55:21.649Z,38.38
2023-02-08T14:57:48.873Z,38.84
2023-02-08T15:00:22.050Z,38.67
2023-02-08T15:02:49.482Z,38.70
2023-02-08T15:05:46.401Z,38.27
2023-02-08T15:08:13.180Z,38.28
2023-02-08T15:10:45.100Z,38.45
2023-02-08T15:13:20.586Z,38.36
2023-02-08T15:15:53.253Z,38.57
2023-02-08T15:18:24.093Z,39.13
2023-02-08T15:21:15.258Z,38.21
2023-02-08T15:23:41.801Z,38.67
2023-02-08T15:26:23.674Z,38.76
2023-02-08T15:28:50.199Z,38.80
2023-02-08T15:31:20.620Z,38.55
2023-02-08T15:33:47.719Z,38.52
2023-02-08T15:36:35.014Z,38.45
2023-02-08T15:39:09.938Z,38.22
2023-02-08T15:41:38.187Z,38.70
2023-02-08T15:44:29.018Z,38.46
2023-02-08T15:46:58.904Z,38.86
2023-02-08T15:49:33.696Z,38.26
2023-02-08T15:52:01.235Z,38.29
2023-02-08T15:54:28.208Z,38.49
2023-02-08T15:57:39.074Z,38.28
2023-02-08T16:00:19.301Z,38.30
2023-02-08T16:02:55.929Z,38.68
2023-02-08T16:05:26.238Z,38.60
2023-02-08T16:07:53.683Z,38.69
2023-02-08T16:10:33.715Z,38.73
2023-02-08T16:13:04.511Z,38.91
2023-02-08T16:15:38.294Z,38.47
2023-02-08T16:18:04.791Z,38.30
2023-02-08T16:20:34.219Z,38.86
2023-02-08T16:23:21.698Z,38.79
2023-02-08T16:25:49.758Z,38.94
2023-02-08T16:28:29.764Z,38.54
2023-02-08T16:30:59.229Z,39.10
2023-02-08T16:33:26.743Z,39.05
2023-02-08T16:36:01.546Z,39.64
2023-02-08T16:38:32.118Z,39.01
2023-02-08T16:41:12.194Z,39.17
2023-02-08T16:43:44.660Z,39.36
2023-02-08T16:46:11.226Z,39.36
2023-02-08T16:48:53.973Z,39.02
2023-02-08T16:51:30.431Z,39.43
2023-02-08T16:54:03.440Z,39.33
2023-02-08T16:56:30.066Z,39.42
2023-02-08T16:58:56.596Z,39.38
2023-02-08T17:01:24.400Z,39.45
2023-02-08T17:03:52.887Z,39.63
2023-02-08T17:06:30.314Z,39.19
2023-02-08T17:08:58.104Z,39.34
2023-02-08T17:11:24.929Z,39.28
2023-02-08T17:13:54.677Z,39.44
2023-02-08T17:16:23.625Z,39.73
2023-02-08T17:18:50.418Z,39.51
2023-02-08T17:21:17.326Z,39.85
2023-02-08T17:23:45.004Z,39.81
2023-02-08T17:26:16.001Z,39.95
2023-02-08T17:28:43.704Z,40.35
2023-02-08T17:31:14.718Z,40.50
2023-02-08T17:33:41.556Z,40.28
2023-02-08T17:36:09.740Z,40.29
2023-02-08T17:38:39.446Z,40.56
2023-02-08T17:41:14.880Z,40.88
2023-02-08T17:43:41.564Z,40.68
2023-02-08T17:46:10.392Z,40.64
2023-02-08T17:48:37.084Z,40.95
2023-02-08T17:51:18.695Z,40.90
2023-02-08T17:53:45.653Z,41.00
2023-02-08T17:56:13.367Z,41.14
2023-02-08T17:58:41.172Z,41.06
2023-02-08T18:01:10.084Z,40.83
2023-02-08T18:03:36.912Z,41.02
2023-02-08T18:06:06.033Z,40.77
2023-02-08T18:08:32.917Z,40.68
2023-02-08T18:11:19.438Z,40.75
2023-02-08T18:13:47.560Z,40.79
2023-02-08T18:16:20.627Z,40.64
2023-02-08T18:18:47.320Z,41.05
2023-02-08T18:21:19.775Z,40.55
2023-02-08T18:23:47.317Z,41.00
2023-02-08T18:26:17.052Z,40.66
2023-02-08T18:28:44.805Z,40.82
2023-02-08T18:31:15.188Z,40.31
2023-02-08T18:33:43.550Z,40.91
2023-02-08T18:36:11.603Z,40.69
2023-02-08T18:38:39.966Z,41.20
2023-02-08T18:41:11.360Z,40.82
2023-02-08T18:43:39.637Z,40.90
2023-02-08T18:46:09.919Z,41.26
2023-02-08T18:48:37.897Z,41.02
2023-02-08T18:51:06.264Z,41.27
2023-02-08T18:53:35.041Z,41.14
2023-02-08T18:56:03.555Z,41.46
2023-02-08T18:58:31.446Z,41.27
2023-02-08T19:01:13.314Z,40.91
2023-02-08T19:03:40.547Z,41.37
2023-02-08T19:06:16.322Z,41.35
2023-02-08T19:08:44.985Z,41.68
2023-02-08T19:11:35.326Z,41.23
2023-02-08T19:14:05.352Z,41.02
2023-02-08T19:16:33.437Z,41.48
2023-02-08T19:19:01.158Z,41.13
2023-02-08T19:21:29.160Z,41.04
2023-02-08T19:23:58.046Z,41.69
2023-02-08T19:26:26.893Z,41.33
2023-02-08T19:28:57.271Z,41.50
2023-02-08T19:31:24.481Z,41.18
2023-02-08T19:33:58.430Z,41.92
2023-02-08T19:36:31.913Z,41.78
2023-02-08T19:38:59.921Z,41.32
2023-02-08T19:41:27.885Z,41.66
2023-02-08T19:43:54.875Z,41.88
2023-02-08T19:46:23.839Z,41.83
2023-02-08T19:48:51.440Z,41.81
2023-02-08T19:51:18.627Z,41.53
2023-02-08T19:53:45.579Z,41.64
2023-02-08T19:56:15.096Z,41.73
2023-02-08T19:58:42.119Z,41.73
2023-02-08T20:01:20.993Z,42.01
2023-02-08T20:03:49.257Z,42.03
2023-02-08T20:06:36.041Z,42.45
2023-02-08T20:09:04.891Z,41.97
2023-02-08T20:11:35.891Z,41.95
2023-02-08T20:14:04.359Z,41.86
2023-02-08T20:16:31.873Z,42.58
2023-02-08T20:18:58.957Z,41.93
2023-02-08T20:21:25.602Z,42.67
2023-02-08T20:23:52.702Z,42.09
2023-02-08T20:26:24.699Z,42.51
2023-02-08T20:28:54.291Z,42.50
2023-02-08T20:31:24.559Z,42.44
2023-02-08T20:33:52.084Z,42.19
2023-02-08T20:36:24.510Z,41.94
2023-02-08T20:38:54.246Z,42.97
2023-02-08T20:41:22.050Z,42.53
2023-02-08T20:43:49.017Z,42.73
2023-02-08T20:46:31.382Z,43.29
2023-02-08T20:48:59.941Z,43.07
2023-02-08T20:51:28.623Z,42.59
2023-02-08T20:53:56.573Z,42.70
2023-02-08T20:56:32.246Z,42.88
2023-02-08T20:59:04.537Z,43.39
2023-02-08T21:01:31.590Z,42.76
2023-02-08T21:03:58.905Z,42.93
2023-02-08T21:06:30.823Z,43.14
2023-02-08T21:08:59.455Z,43.05
2023-02-08T21:11:29.261Z,42.52
2023-02-08T21:13:56.651Z,43.29
2023-02-08T21:16:24.182Z,43.00
2023-02-08T21:18:50.903Z,42.75
2023-02-08T21:21:17.945Z,43.20
2023-02-08T21:23:44.883Z,43.20
2023-02-08T21:26:14.275Z,42.97
2023-02-08T21:28:41.274Z,43.62
2023-02-08T21:31:12.071Z,42.89
2023-02-08T21:33:38.699Z,43.52
2023-02-08T21:36:10.292Z,43.46
2023-02-08T21:38:37.077Z,43.17
2023-02-08T21:41:15.375Z,43.32
2023-02-08T21:43:41.909Z,43.37
2023-02-08T21:46:09.718Z,43.96
2023-02-08T21:48:56.715Z,43.89
2023-02-08T21:51:43.677Z,43.92
2023-02-08T21:54:36.760Z,43.67
2023-02-08T21:57:05.804Z,43.44
2023-02-08T21:59:37.277Z,43.35
2023-02-08T22:02:12.381Z,43.85
2023-02-08T22:04:57.786Z,42.89
2023-02-08T22:07:25.658Z,43.10
2023-02-08T22:09:52.425Z,43.33
2023-02-08T22:12:21.044Z,42.93
2023-02-08T22:14:48.904Z,44.05
2023-02-08T22:17:16.020Z,42.91
2023-02-08T22:19:42.984Z,43.31
2023-02-08T22:22:10.497Z,43.43
2023-02-08T22:24:37.076Z,43.54
2023-02-08T22:27:03.726Z,43.20
2023-02-08T22:29:30.268Z,43.13
2023-02-08T22:31:56.909Z,43.22
2023-02-08T22:34:24.022Z,43.39
2023-02-08T22:36:50.516Z,44.12
2023-02-08T22:39:17.263Z,43.28
2023-02-08T22:41:43.746Z,43.20
2023-02-08T22:44:10.354Z,43.44
2023-02-08T22:46:36.914Z,44.21
2023-02-08T22:49:03.490Z,44.21
2023-02-08T22:51:30.252Z,43.84
2023-02-08T22:53:56.748Z,44.07
2023-02-08T22:56:23.239Z,43.47
2023-02-08T22:58:49.759Z,43.41
2023-02-08T23:01:17.377Z,43.62
2023-02-08T23:03:44.378Z,44.01
2023-02-08T23:06:14.938Z,43.37
2023-02-08T23:08:42.957Z,44.06
2023-02-08T23:11:12.689Z,43.55
2023-02-08T23:13:39.231Z,43.93
2023-02-08T23:16:06.325Z,44.10
2023-02-08T23:18:35.011Z,43.55
2023-02-08T23:21:06.510Z,43.43
2023-02-08T23:23:33.278Z,43.65
2023-02-08T23:25:59.839Z,43.96
2023-02-08T23:28:26.726Z,43.53
2023-02-08T23:30:53.294Z,44.04
2023-02-08T23:33:19.925Z,43.79
2023-02-08T23:35:46.467Z,44.12
2023-02-08T23:38:13.008Z,43.16
2023-02-08T23:40:42.796Z,43.14
2023-02-08T23:43:09.482Z,44.08
2023-02-08T23:45:36.795Z,43.46
2023-02-08T23:48:03.457Z,43.59
2023-02-08T23:50:29.973Z,43.54
2023-02-08T23:52:56.603Z,44.19
2023-02-08T23:55:23.732Z,43.28
2023-02-08T23:57:50.294Z,43.71
